Time;durP1;ratioP1;P1;durP2;ratioP2;P2;SDS_P1;SDS_P2;PMS_P1;PMS_P2;Temp;Humidity;BMP_temperature;BMP_pressure;BME280_temperature;BME280_humidity;BME280_pressure;Samples;Min_cycle;Max_cycle;Signal;HPM_P1;HPM_P2
2022/11/04 00:01:18;;;;;;;;;;;12.20;99.90;;;;;;5048807;28;19933;-58
2022/11/04 00:03:45;;;;;;;;;;;12.20;99.90;;;;;;5048887;28;20437;-58
2022/11/04 00:06:12;;;;;;;;;;;12.20;99.90;;;;;;5047786;28;19929;-57
2022/11/04 00:08:40;;;;;;;;;;;12.20;99.90;;;;;;5049712;28;19928;-57
2022/11/04 00:13:51;;;;;;;;;;;12.20;99.90;;;;;;5047647;28;20023;-57
2022/11/04 00:19:11;;;;;;;;;;;12.20;99.90;;;;;;5049561;28;20008;-57
2022/11/04 00:30:00;;;;;;;;;;;12.20;99.90;;;;;;4985755;28;19980;-57
2022/11/04 00:35:12;;;;;;;;;;;12.20;99.90;;;;;;5048519;28;20031;-57
2022/11/04 00:37:39;;;;;;;;;;;12.20;99.90;;;;;;5048702;28;20375;-58
2022/11/04 00:40:08;;;;;;;;;;;12.10;99.90;;;;;;5047812;28;19933;-57
2022/11/04 00:42:35;;;;;;;;;;;12.10;99.90;;;;;;5047224;28;19932;-57
2022/11/04 00:45:02;;;;;;;;;;;12.10;99.90;;;;;;5044562;28;19935;-57
2022/11/04 00:47:28;;;;;;;;;;;12.00;99.90;;;;;;5049747;28;20811;-57
2022/11/04 00:49:55;;;;;;;;;;;12.00;99.90;;;;;;5052914;28;19928;-57
2022/11/04 00:52:22;;;;;;;;;;;11.90;99.90;;;;;;5053440;28;20923;-57
2022/11/04 00:54:49;;;;;;;;;;;11.90;99.90;;;;;;5051777;28;19935;-57
2022/11/04 00:57:17;;;;;;;;;;;11.90;99.90;;;;;;5052001;28;19936;-57
2022/11/04 00:59:44;;;;;;;;;;;11.90;99.90;;;;;;5052134;28;19929;-57
2022/11/04 01:02:11;;;;;;;;;;;11.80;99.90;;;;;;5052523;28;20408;-57
2022/11/04 01:04:37;;;;;;;;;;;11.80;99.90;;;;;;5050246;28;19928;-58
2022/11/04 01:07:04;;;;;;;;;;;11.80;99.90;;;;;;5051476;28;20181;-58
2022/11/04 01:09:31;;;;;;;;;;;11.70;99.90;;;;;;5051497;28;19929;-57
2022/11/04 01:11:57;;;;;;;;;;;11.70;99.90;;;;;;5050727;28;21721;-58
2022/11/04 01:14:25;;;;;;;;;;;11.70;99.90;;;;;;5051665;28;19928;-57
2022/11/04 01:16:52;;;;;;;;;;;11.70;99.90;;;;;;5051702;28;19935;-57
2022/11/04 01:19:19;;;;;;;;;;;11.70;99.90;;;;;;5051665;28;19935;-58
2022/11/04 01:21:45;;;;;;;;;;;11.80;99.90;;;;;;5051902;28;19995;-58
2022/11/04 01:24:12;;;;;;;;;;;11.70;99.90;;;;;;5052286;28;20382;-58
2022/11/04 01:26:39;;;;;;;;;;;11.70;99.90;;;;;;5051479;28;20384;-57
2022/11/04 01:29:05;;;;;;;;;;;11.70;99.90;;;;;;5050137;28;20736;-57
2022/11/04 01:31:33;;;;;;;;;;;11.70;99.90;;;;;;5051625;28;20367;-57
2022/11/04 01:34:00;;;;;;;;;;;11.70;99.90;;;;;;5048357;28;19928;-57
2022/11/04 01:36:27;;;;;;;;;;;11.60;99.90;;;;;;5051129;28;19929;-57
2022/11/04 01:38:54;;;;;;;;;;;11.70;99.90;;;;;;5051862;28;19928;-58
2022/11/04 01:41:22;;;;;;;;;;;11.60;99.90;;;;;;5051686;28;19933;-57
2022/11/04 01:43:50;;;;;;;;;;;11.70;99.90;;;;;;5050099;28;20396;-58
2022/11/04 01:46:21;;;;;;;;;;;11.70;99.90;;;;;;5051293;28;19935;-57
2022/11/04 01:48:49;;;;;;;;;;;11.70;99.90;;;;;;5052427;28;20411;-57
2022/11/04 01:51:16;;;;;;;;;;;11.70;99.90;;;;;;5052745;28;19933;-57
2022/11/04 01:53:44;;;;;;;;;;;11.70;99.90;;;;;;5051531;28;19928;-57
2022/11/04 01:56:13;;;;;;;;;;;11.70;99.90;;;;;;5052541;28;19928;-57
2022/11/04 01:58:40;;;;;;;;;;;11.70;99.90;;;;;;5050316;28;19951;-57
2022/11/04 02:01:09;;;;;;;;;;;11.70;99.90;;;;;;5048388;28;19939;-57
2022/11/04 02:03:38;;;;;;;;;;;11.70;99.90;;;;;;5049666;28;20043;-57
2022/11/04 02:06:06;;;;;;;;;;;11.70;99.90;;;;;;5050759;28;19934;-57
2022/11/04 02:08:33;;;;;;;;;;;11.80;99.90;;;;;;5050188;28;19928;-57
2022/11/04 02:11:01;;;;;;;;;;;11.70;99.90;;;;;;5049798;28;20653;-57
2022/11/04 02:13:29;;;;;;;;;;;11.70;99.90;;;;;;5050473;28;19935;-57
2022/11/04 02:15:59;;;;;;;;;;;11.80;99.90;;;;;;5050850;28;19977;-57
2022/11/04 02:18:40;;;;;;;;;;;11.80;99.90;;;;;;5051692;28;19935;-57
2022/11/04 02:21:29;;;;;;;;;;;11.80;99.90;;;;;;5050400;28;19971;-57
2022/11/04 02:24:10;;;;;;;;;;;11.70;99.90;;;;;;5050737;28;19935;-57
2022/11/04 02:27:03;;;;;;;;;;;11.70;99.90;;;;;;5048675;28;20474;-57
2022/11/04 02:29:35;;;;;;;;;;;11.70;99.90;;;;;;5049796;28;20154;-57
2022/11/04 02:32:10;;;;;;;;;;;11.70;99.90;;;;;;5050349;28;19933;-57
2022/11/04 02:34:40;;;;;;;;;;;11.60;99.90;;;;;;5050532;28;20367;-57
2022/11/04 02:37:12;;;;;;;;;;;11.60;99.90;;;;;;5051311;28;20396;-57
2022/11/04 02:39:46;;;;;;;;;;;11.60;99.90;;;;;;5050153;28;19952;-57
2022/11/04 02:42:15;;;;;;;;;;;11.60;99.90;;;;;;5050840;28;19940;-57
2022/11/04 02:44:45;;;;;;;;;;;11.60;99.90;;;;;;5050972;28;22253;-58
2022/11/04 02:47:13;;;;;;;;;;;11.60;99.90;;;;;;5049428;28;20013;-57
2022/11/04 02:49:41;;;;;;;;;;;11.50;99.90;;;;;;5050592;28;20623;-57
2022/11/04 02:52:09;;;;;;;;;;;11.50;99.90;;;;;;5050334;28;19933;-56
2022/11/04 02:54:38;;;;;;;;;;;11.50;99.90;;;;;;5049284;28;20544;-57
2022/11/04 02:57:07;;;;;;;;;;;11.50;99.90;;;;;;5049124;28;20471;-57
2022/11/04 02:59:36;;;;;;;;;;;11.50;99.90;;;;;;5050215;28;19928;-58
2022/11/04 03:02:06;;;;;;;;;;;11.50;99.90;;;;;;5049865;28;20336;-57
2022/11/04 03:04:35;;;;;;;;;;;11.50;99.90;;;;;;5049420;28;19929;-57
2022/11/04 03:07:03;;;;;;;;;;;11.50;99.90;;;;;;5049321;28;20781;-57
2022/11/04 03:09:30;;;;;;;;;;;11.50;99.90;;;;;;5049225;28;19929;-57
2022/11/04 03:12:01;;;;;;;;;;;11.50;99.90;;;;;;5050032;28;20647;-58
2022/11/04 03:14:30;;;;;;;;;;;11.50;99.90;;;;;;5049114;28;20026;-57
2022/11/04 03:16:58;;;;;;;;;;;11.50;99.90;;;;;;5049440;28;19932;-57
2022/11/04 03:19:31;;;;;;;;;;;11.50;99.90;;;;;;5049053;28;20491;-57
2022/11/04 03:21:59;;;;;;;;;;;11.50;99.90;;;;;;5048523;28;19933;-57
2022/11/04 03:24:26;;;;;;;;;;;11.50;99.90;;;;;;5048417;28;19928;-58
2022/11/04 03:26:58;;;;;;;;;;;11.50;99.90;;;;;;5050291;28;19951;-57
2022/11/04 03:29:26;;;;;;;;;;;11.50;99.90;;;;;;5049164;28;19935;-57
2022/11/04 03:32:00;;;;;;;;;;;11.50;99.90;;;;;;5048805;28;19933;-57
2022/11/04 03:34:28;;;;;;;;;;;11.50;99.90;;;;;;5048512;28;19936;-57
2022/11/04 03:36:55;;;;;;;;;;;11.50;99.90;;;;;;5047921;28;19929;-57
2022/11/04 03:39:21;;;;;;;;;;;11.50;99.90;;;;;;5049295;28;19928;-57
2022/11/04 03:41:50;;;;;;;;;;;11.50;99.90;;;;;;5047917;28;19933;-57
2022/11/04 03:44:17;;;;;;;;;;;11.50;99.90;;;;;;5049128;28;19928;-57
2022/11/04 03:46:43;;;;;;;;;;;11.50;99.90;;;;;;5049003;28;19936;-57
2022/11/04 03:49:11;;;;;;;;;;;11.50;99.90;;;;;;5048374;28;19928;-57
2022/11/04 03:51:39;;;;;;;;;;;11.60;99.90;;;;;;5048450;28;21583;-57
2022/11/04 03:54:06;;;;;;;;;;;11.60;99.90;;;;;;5049486;28;19936;-57
2022/11/04 03:56:50;;;;;;;;;;;11.60;99.90;;;;;;5049280;28;20035;-57
2022/11/04 03:59:28;;;;;;;;;;;11.60;99.90;;;;;;5048849;28;20141;-57
2022/11/04 04:01:56;;;;;;;;;;;11.60;99.90;;;;;;5048008;28;19933;-57
2022/11/04 04:04:26;;;;;;;;;;;11.60;99.90;;;;;;5047908;28;19929;-57
2022/11/04 04:06:57;;;;;;;;;;;11.60;99.90;;;;;;5049582;28;19929;-57
2022/11/04 04:09:26;;;;;;;;;;;11.60;99.90;;;;;;5047512;28;19932;-57
2022/11/04 04:11:54;;;;;;;;;;;11.60;99.90;;;;;;5048812;28;19940;-57
2022/11/04 04:17:06;;;;;;;;;;;11.60;99.90;;;;;;5048207;28;20890;-57
2022/11/04 04:19:33;;;;;;;;;;;11.60;99.90;;;;;;5048629;28;19936;-57
2022/11/04 04:22:05;;;;;;;;;;;11.50;99.90;;;;;;5048135;28;19932;-57
2022/11/04 04:27:31;;;;;;;;;;;11.50;99.90;;;;;;5048436;28;20376;-57
2022/11/04 04:29:58;;;;;;;;;;;11.50;99.90;;;;;;5048577;28;19936;-57
2022/11/04 04:32:27;;;;;;;;;;;11.50;99.90;;;;;;5047697;28;19936;-57
2022/11/04 04:35:40;;;;;;;;;;;11.50;99.90;;;;;;5047870;28;20417;-57
2022/11/04 04:37:44;;;;;;;;;;;11.40;99.90;;;;;;5047296;28;19936;-57
2022/11/04 04:45:44;;;;;;;;;;;11.40;99.90;;;;;;5046543;28;20006;-57
2022/11/04 04:48:12;;;;;;;;;;;11.30;99.90;;;;;;5047109;28;20329;-57
2022/11/04 04:50:40;;;;;;;;;;;11.30;99.90;;;;;;5047928;28;19935;-57
2022/11/04 04:53:08;;;;;;;;;;;11.30;99.90;;;;;;5048514;28;20022;-57
2022/11/04 04:55:35;;;;;;;;;;;11.30;99.90;;;;;;5047547;28;20417;-57
2022/11/04 04:58:02;;;;;;;;;;;11.30;99.90;;;;;;5049099;28;21095;-57
2022/11/04 05:00:29;;;;;;;;;;;11.30;99.90;;;;;;5047996;28;20380;-57
2022/11/04 05:02:55;;;;;;;;;;;11.20;99.90;;;;;;5048434;28;20390;-57
2022/11/04 05:05:22;;;;;;;;;;;11.20;99.90;;;;;;5047186;28;19928;-57
2022/11/04 05:07:49;;;;;;;;;;;11.20;99.90;;;;;;5050736;28;20538;-57
2022/11/04 05:10:17;;;;;;;;;;;11.20;99.90;;;;;;5049624;28;19971;-57
2022/11/04 05:15:29;;;;;;;;;;;11.20;99.90;;;;;;5049909;28;20422;-57
2022/11/04 05:17:57;;;;;;;;;;;11.20;99.90;;;;;;5048320;28;19928;-57
2022/11/04 05:20:24;;;;;;;;;;;11.10;99.90;;;;;;5048885;28;20375;-57
2022/11/04 05:22:51;;;;;;;;;;;11.20;99.90;;;;;;5048236;28;19939;-57
2022/11/04 05:25:19;;;;;;;;;;;11.20;99.90;;;;;;5047592;28;20070;-57
2022/11/04 05:27:45;;;;;;;;;;;11.20;99.90;;;;;;5047169;28;19935;-57
2022/11/04 05:30:12;;;;;;;;;;;11.10;99.90;;;;;;5048389;28;21088;-57
2022/11/04 05:32:38;;;;;;;;;;;11.10;99.90;;;;;;5048036;28;20475;-57
2022/11/04 05:35:06;;;;;;;;;;;11.10;99.90;;;;;;5050292;28;19929;-57
2022/11/04 05:37:32;;;;;;;;;;;11.10;99.90;;;;;;5051263;28;20370;-57
2022/11/04 05:39:59;;;;;;;;;;;11.10;99.90;;;;;;5051002;28;20277;-57
2022/11/04 05:42:28;;;;;;;;;;;11.10;99.90;;;;;;5052437;28;20390;-57
2022/11/04 05:44:54;;;;;;;;;;;11.10;99.90;;;;;;5051857;28;20395;-57
2022/11/04 05:47:21;;;;;;;;;;;11.10;99.90;;;;;;5051490;28;20408;-57
2022/11/04 05:49:48;;;;;;;;;;;11.10;99.90;;;;;;5050676;28;20104;-57
2022/11/04 05:52:14;;;;;;;;;;;11.00;99.90;;;;;;5051467;28;21511;-57
2022/11/04 05:54:41;;;;;;;;;;;11.00;99.90;;;;;;5050565;28;19935;-57
2022/11/04 05:57:09;;;;;;;;;;;11.00;99.90;;;;;;5051024;28;19935;-57
2022/11/04 05:59:37;;;;;;;;;;;10.90;99.90;;;;;;5051567;28;19932;-57
2022/11/04 06:02:03;;;;;;;;;;;11.00;99.90;;;;;;5049964;28;19932;-57
2022/11/04 06:04:30;;;;;;;;;;;11.00;99.90;;;;;;5049254;28;20392;-57
2022/11/04 06:06:57;;;;;;;;;;;10.90;99.90;;;;;;5050662;28;19929;-57
2022/11/04 06:09:37;;;;;;;;;;;10.90;99.90;;;;;;5051896;28;19928;-57
2022/11/04 06:12:05;;;;;;;;;;;10.90;99.90;;;;;;5049512;28;19933;-57
2022/11/04 06:14:31;;;;;;;;;;;10.80;99.90;;;;;;5050550;28;20407;-57
2022/11/04 06:16:59;;;;;;;;;;;10.80;99.90;;;;;;5051303;28;20644;-57
2022/11/04 06:19:26;;;;;;;;;;;10.80;99.90;;;;;;5049661;28;19976;-57
2022/11/04 06:21:53;;;;;;;;;;;10.80;99.90;;;;;;5050114;28;19932;-57
2022/11/04 06:24:20;;;;;;;;;;;10.80;99.90;;;;;;5051169;28;19928;-57
2022/11/04 06:26:46;;;;;;;;;;;10.70;99.90;;;;;;5051186;28;19932;-57
2022/11/04 06:29:13;;;;;;;;;;;10.70;99.90;;;;;;5051093;28;20956;-57
2022/11/04 06:31:39;;;;;;;;;;;10.70;99.90;;;;;;5048472;28;19932;-57
2022/11/04 06:34:07;;;;;;;;;;;10.60;99.90;;;;;;5049371;28;19928;-57
2022/11/04 06:36:35;;;;;;;;;;;10.60;99.90;;;;;;5049607;28;19936;-57
2022/11/04 06:39:01;;;;;;;;;;;10.60;99.90;;;;;;5049532;28;19929;-57
2022/11/04 06:41:28;;;;;;;;;;;10.60;99.90;;;;;;5050122;28;21144;-57
2022/11/04 06:43:54;;;;;;;;;;;10.60;99.90;;;;;;5048106;28;19935;-57
2022/11/04 06:46:26;;;;;;;;;;;10.60;99.90;;;;;;5046463;28;19935;-57
2022/11/04 06:48:52;;;;;;;;;;;10.60;99.90;;;;;;5050378;28;19930;-57
2022/11/04 06:51:20;;;;;;;;;;;10.60;99.90;;;;;;5048665;28;20010;-57
2022/11/04 06:53:47;;;;;;;;;;;10.60;99.90;;;;;;5049003;28;20426;-57
2022/11/04 06:56:14;;;;;;;;;;;10.60;99.90;;;;;;5048402;28;20664;-57
2022/11/04 06:58:40;;;;;;;;;;;10.50;99.90;;;;;;5049801;28;20503;-57
2022/11/04 07:01:07;;;;;;;;;;;10.50;99.90;;;;;;5047220;28;20034;-57
2022/11/04 07:03:34;;;;;;;;;;;10.60;99.90;;;;;;5048064;28;20396;-57
2022/11/04 07:06:05;;;;;;;;;;;10.60;99.90;;;;;;5047257;28;19934;-57
2022/11/04 07:08:33;;;;;;;;;;;10.60;99.90;;;;;;5047500;28;20010;-57
2022/11/04 07:11:00;;;;;;;;;;;10.70;99.90;;;;;;5049603;28;19933;-57
2022/11/04 07:13:26;;;;;;;;;;;10.70;99.90;;;;;;5050279;28;19928;-57
2022/11/04 07:15:53;;;;;;;;;;;10.70;99.90;;;;;;5048413;28;20482;-57
2022/11/04 07:18:19;;;;;;;;;;;10.70;99.90;;;;;;5048836;28;19929;-57
2022/11/04 07:20:46;;;;;;;;;;;10.80;99.90;;;;;;5049094;28;19939;-57
2022/11/04 07:23:13;;;;;;;;;;;10.80;99.90;;;;;;5049156;28;19982;-57
2022/11/04 07:25:42;;;;;;;;;;;10.80;99.90;;;;;;5048757;28;20244;-57
2022/11/04 07:28:08;;;;;;;;;;;10.80;99.90;;;;;;5048671;28;21675;-57
2022/11/04 07:30:36;;;;;;;;;;;10.80;99.90;;;;;;5047459;28;20420;-57
2022/11/04 07:33:02;;;;;;;;;;;10.90;99.90;;;;;;5049262;28;20386;-57
2022/11/04 07:35:29;;;;;;;;;;;10.90;99.90;;;;;;5046596;28;20023;-57
2022/11/04 07:37:55;;;;;;;;;;;10.90;99.90;;;;;;5047806;28;19936;-57
2022/11/04 07:40:22;;;;;;;;;;;10.90;99.90;;;;;;5047981;28;19939;-57
2022/11/04 07:42:50;;;;;;;;;;;11.00;99.90;;;;;;5047519;28;19929;-57
2022/11/04 07:45:17;;;;;;;;;;;11.00;99.90;;;;;;5047732;28;19935;-57
2022/11/04 07:47:43;;;;;;;;;;;11.00;99.90;;;;;;5048870;28;20367;-57
2022/11/04 07:50:10;;;;;;;;;;;11.10;99.90;;;;;;5048731;28;20400;-57
2022/11/04 07:52:37;;;;;;;;;;;11.10;99.90;;;;;;5048848;28;19928;-57
2022/11/04 07:55:03;;;;;;;;;;;11.00;99.90;;;;;;5048803;28;19928;-57
2022/11/04 07:57:30;;;;;;;;;;;11.00;99.90;;;;;;5047174;28;20418;-57
2022/11/04 07:59:58;;;;;;;;;;;11.00;99.90;;;;;;5043693;28;19933;-57
2022/11/04 08:02:25;;;;;;;;;;;11.00;99.90;;;;;;5043384;28;20984;-57
2022/11/04 08:04:52;;;;;;;;;;;11.10;99.90;;;;;;5044829;28;20088;-57
2022/11/04 08:07:18;;;;;;;;;;;11.10;99.90;;;;;;5048119;28;19958;-57
2022/11/04 08:09:45;;;;;;;;;;;11.20;99.90;;;;;;5049015;28;21173;-57
2022/11/04 08:12:12;;;;;;;;;;;11.20;99.90;;;;;;5049043;28;19998;-58
2022/11/04 08:14:39;;;;;;;;;;;11.20;99.90;;;;;;5049306;28;19929;-58
2022/11/04 08:17:07;;;;;;;;;;;11.30;99.90;;;;;;5048890;28;19956;-57
2022/11/04 08:19:37;;;;;;;;;;;11.30;99.90;;;;;;5049804;28;20019;-57
2022/11/04 08:22:03;;;;;;;;;;;11.40;99.90;;;;;;5050050;28;19982;-57
2022/11/04 08:24:31;;;;;;;;;;;11.30;99.90;;;;;;5041801;28;19933;-57
2022/11/04 08:26:57;;;;;;;;;;;11.40;99.90;;;;;;5036479;28;19929;-57
2022/11/04 08:29:24;;;;;;;;;;;11.40;99.90;;;;;;5048876;28;19933;-57
2022/11/04 08:31:51;;;;;;;;;;;11.40;99.90;;;;;;5048901;28;19932;-57
2022/11/04 08:34:19;;;;;;;;;;;11.50;99.90;;;;;;5046523;28;20047;-57
2022/11/04 08:36:46;;;;;;;;;;;11.50;99.90;;;;;;5045676;28;20807;-57
2022/11/04 08:39:13;;;;;;;;;;;11.50;99.90;;;;;;4157991;28;10000509;-57
2022/11/04 08:44:15;;;;;;;;;;;11.60;99.90;;;;;;5057702;22;20448;-62
2022/11/04 08:46:43;;;;;;;;;;;11.60;99.90;;;;;;4989699;28;21088;-61
2022/11/04 08:49:10;;;;;;;;;;;11.70;99.90;;;;;;4989331;28;19929;-61
2022/11/04 08:51:39;;;;;;;;;;;11.60;99.90;;;;;;5313287;23;19937;-57
2022/11/04 08:54:06;;;;;;;;;;;11.70;99.90;;;;;;4954686;28;20642;-57
2022/11/04 08:56:34;;;;;;;;;;;11.80;99.90;;;;;;4963358;28;19935;-57
2022/11/04 08:59:03;;;;;;;;;;;11.80;99.90;;;;;;4956836;28;21099;-58
2022/11/04 09:01:30;;;;;;;;;;;11.80;99.90;;;;;;4092289;28;10000790;-61
2022/11/04 09:04:01;;;;;;;;;;;11.80;99.90;;;;;;4961734;28;20483;-61
2022/11/04 09:06:29;;;;;;;;;;;11.90;99.90;;;;;;4961253;28;20365;-61
2022/11/04 09:09:02;;;;;;;;;;;11.90;99.90;;;;;;4960964;28;20452;-61
2022/11/04 09:11:30;;;;;;;;;;;12.00;99.90;;;;;;4963035;28;19930;-61
2022/11/04 09:13:58;;;;;;;;;;;12.00;99.90;;;;;;4966111;28;20410;-61
2022/11/04 09:16:25;;;;;;;;;;;12.10;99.90;;;;;;4967214;28;19930;-61
2022/11/04 09:18:51;;;;;;;;;;;12.10;99.90;;;;;;4968092;28;20093;-61
2022/11/04 09:21:18;;;;;;;;;;;12.10;99.90;;;;;;4968490;28;20555;-61
2022/11/04 09:23:45;;;;;;;;;;;12.20;99.90;;;;;;4967304;28;20700;-62
2022/11/04 09:26:14;;;;;;;;;;;12.30;99.90;;;;;;4967147;28;20419;-62
2022/11/04 09:28:41;;;;;;;;;;;12.30;99.90;;;;;;4086772;28;10000585;-61
2022/11/04 09:31:08;;;;;;;;;;;12.30;99.90;;;;;;4968820;28;19937;-61
2022/11/04 09:33:35;;;;;;;;;;;12.40;99.90;;;;;;4968485;28;19941;-61
2022/11/04 09:36:02;;;;;;;;;;;12.50;99.90;;;;;;4969753;28;19930;-61
2022/11/04 09:38:28;;;;;;;;;;;12.50;99.90;;;;;;4969028;28;19933;-61
2022/11/04 09:40:55;;;;;;;;;;;12.60;99.90;;;;;;4967745;28;19930;-62
2022/11/04 09:43:28;;;;;;;;;;;12.70;99.90;;;;;;4968435;28;19993;-62
2022/11/04 09:45:55;;;;;;;;;;;12.80;99.90;;;;;;4969082;28;20493;-61
2022/11/04 09:48:24;;;;;;;;;;;12.90;99.90;;;;;;4970293;28;20035;-61
2022/11/04 09:50:53;;;;;;;;;;;13.00;99.90;;;;;;4982801;28;19936;-61
2022/11/04 09:53:22;;;;;;;;;;;13.20;99.90;;;;;;5002339;28;20435;-61
2022/11/04 09:55:50;;;;;;;;;;;13.30;99.90;;;;;;5005229;28;20584;-61
2022/11/04 09:58:17;;;;;;;;;;;13.40;99.90;;;;;;4999957;28;20362;-61
2022/11/04 10:00:48;;;;;;;;;;;13.50;99.90;;;;;;5006772;28;19992;-61
2022/11/04 10:03:25;;;;;;;;;;;13.60;99.90;;;;;;5001562;28;20459;-62
2022/11/04 10:05:58;;;;;;;;;;;13.60;99.90;;;;;;5002695;28;21744;-61
2022/11/04 10:08:36;;;;;;;;;;;13.70;99.90;;;;;;5004694;28;19960;-61
2022/11/04 10:11:05;;;;;;;;;;;13.70;99.90;;;;;;5004805;28;20024;-62
2022/11/04 10:13:39;;;;;;;;;;;13.80;99.90;;;;;;5003391;28;19964;-61
2022/11/04 10:16:14;;;;;;;;;;;13.70;99.90;;;;;;4999038;28;20381;-62
2022/11/04 10:18:50;;;;;;;;;;;13.70;99.90;;;;;;5004594;28;20716;-62
2022/11/04 10:21:21;;;;;;;;;;;13.70;99.90;;;;;;5001793;28;20472;-62
2022/11/04 10:23:57;;;;;;;;;;;13.70;99.90;;;;;;5004502;28;20642;-61
2022/11/04 10:26:28;;;;;;;;;;;13.70;99.90;;;;;;5003531;28;19930;-62
2022/11/04 10:28:57;;;;;;;;;;;13.70;99.90;;;;;;5004105;28;19956;-61
2022/11/04 10:31:25;;;;;;;;;;;13.80;99.90;;;;;;5002118;28;19930;-61
2022/11/04 10:33:54;;;;;;;;;;;13.80;99.90;;;;;;5005094;28;19933;-62
2022/11/04 10:36:21;;;;;;;;;;;13.70;99.90;;;;;;5001621;28;19930;-61
2022/11/04 10:38:50;;;;;;;;;;;13.60;99.90;;;;;;5004798;28;20439;-61
2022/11/04 10:41:29;;;;;;;;;;;13.60;99.90;;;;;;5002871;28;19963;-61
2022/11/04 10:43:57;;;;;;;;;;;13.60;99.90;;;;;;5004900;28;20398;-61
2022/11/04 10:46:36;;;;;;;;;;;13.50;99.90;;;;;;5002439;28;19929;-62
2022/11/04 10:49:06;;;;;;;;;;;13.50;99.90;;;;;;5004474;28;19953;-62
2022/11/04 10:51:33;;;;;;;;;;;13.40;99.90;;;;;;4999234;28;20023;-62
2022/11/04 10:54:01;;;;;;;;;;;13.50;99.90;;;;;;5005295;28;19933;-61
2022/11/04 10:56:32;;;;;;;;;;;13.50;99.90;;;;;;5003921;28;19976;-62
2022/11/04 10:59:00;;;;;;;;;;;13.50;99.90;;;;;;5005685;28;19929;-62
2022/11/04 11:01:30;;;;;;;;;;;13.50;99.90;;;;;;5003368;28;19941;-61
2022/11/04 11:03:57;;;;;;;;;;;13.40;99.90;;;;;;5004608;28;20024;-62
2022/11/04 11:06:28;;;;;;;;;;;13.40;99.90;;;;;;5002686;28;20327;-62
2022/11/04 11:08:56;;;;;;;;;;;13.40;99.90;;;;;;5006067;28;19933;-62
2022/11/04 11:11:36;;;;;;;;;;;13.40;99.90;;;;;;5004929;28;19930;-63
2022/11/04 11:14:03;;;;;;;;;;;13.50;99.90;;;;;;5004494;28;20228;-61
2022/11/04 11:16:31;;;;;;;;;;;13.60;99.90;;;;;;5003092;28;19936;-61
2022/11/04 11:19:08;;;;;;;;;;;13.50;99.90;;;;;;5003907;28;19936;-61
2022/11/04 11:21:41;;;;;;;;;;;13.60;99.90;;;;;;5003575;28;21493;-61
2022/11/04 11:24:13;;;;;;;;;;;13.60;99.90;;;;;;5005196;28;19940;-61
2022/11/04 11:26:40;;;;;;;;;;;13.70;99.90;;;;;;5004857;28;19937;-61
2022/11/04 11:29:10;;;;;;;;;;;13.80;99.90;;;;;;5001061;28;19941;-61
2022/11/04 11:31:39;;;;;;;;;;;13.90;99.90;;;;;;5002608;28;19937;-61
2022/11/04 11:34:07;;;;;;;;;;;13.90;99.90;;;;;;5006755;28;19933;-61
2022/11/04 11:36:36;;;;;;;;;;;13.90;99.90;;;;;;5002831;28;19930;-61
2022/11/04 11:39:04;;;;;;;;;;;13.80;99.90;;;;;;5005181;28;19929;-61
2022/11/04 11:41:33;;;;;;;;;;;13.70;99.90;;;;;;5002231;28;20416;-61
2022/11/04 11:44:01;;;;;;;;;;;13.60;99.90;;;;;;5003092;28;19933;-61
2022/11/04 11:46:29;;;;;;;;;;;13.50;99.90;;;;;;5002697;28;19977;-61
2022/11/04 11:49:00;;;;;;;;;;;13.30;99.90;;;;;;5005933;28;19929;-60
2022/11/04 11:51:27;;;;;;;;;;;13.20;99.90;;;;;;5002580;28;19929;-61
2022/11/04 11:54:02;;;;;;;;;;;13.20;99.90;;;;;;5004455;28;19933;-61
2022/11/04 11:56:37;;;;;;;;;;;13.10;99.90;;;;;;4999187;28;20091;-60
2022/11/04 11:59:08;;;;;;;;;;;13.10;99.90;;;;;;5005417;28;19979;-60
2022/11/04 12:01:36;;;;;;;;;;;13.00;99.90;;;;;;5002912;28;21324;-60
2022/11/04 12:04:04;;;;;;;;;;;12.90;99.90;;;;;;5004545;28;19933;-60
2022/11/04 12:06:36;;;;;;;;;;;12.80;99.90;;;;;;5001042;28;19930;-60
2022/11/04 12:09:08;;;;;;;;;;;12.70;99.90;;;;;;5004909;28;19929;-59
2022/11/04 12:11:39;;;;;;;;;;;12.60;99.90;;;;;;5002279;28;19940;-61
2022/11/04 12:14:09;;;;;;;;;;;12.50;99.90;;;;;;5005136;28;19933;-60
2022/11/04 12:16:40;;;;;;;;;;;12.50;99.90;;;;;;5002476;28;19930;-60
2022/11/04 12:19:17;;;;;;;;;;;12.40;99.90;;;;;;5003762;28;19933;-60
2022/11/04 12:21:47;;;;;;;;;;;12.40;99.90;;;;;;5003743;28;20400;-60
2022/11/04 12:24:21;;;;;;;;;;;12.40;99.90;;;;;;5002106;28;20392;-61
2022/11/04 12:26:53;;;;;;;;;;;12.40;99.90;;;;;;4996019;28;19935;-60
2022/11/04 12:29:32;;;;;;;;;;;12.40;99.90;;;;;;5002372;28;19929;-60
2022/11/04 12:32:03;;;;;;;;;;;12.40;99.90;;;;;;5003846;28;19929;-60
2022/11/04 12:34:36;;;;;;;;;;;12.50;99.90;;;;;;5000771;28;21165;-61
2022/11/04 12:37:12;;;;;;;;;;;12.50;99.90;;;;;;5004710;28;19936;-60
2022/11/04 12:39:59;;;;;;;;;;;12.60;99.90;;;;;;4999364;28;20373;-60
2022/11/04 12:42:31;;;;;;;;;;;12.60;99.90;;;;;;4997216;28;20711;-61
2022/11/04 12:45:05;;;;;;;;;;;12.70;99.90;;;;;;5007971;28;19934;-60
2022/11/04 12:47:35;;;;;;;;;;;12.70;99.90;;;;;;5008768;28;19929;-60
2022/11/04 12:50:06;;;;;;;;;;;12.80;99.90;;;;;;5006690;28;19949;-60
2022/11/04 12:52:44;;;;;;;;;;;12.80;99.90;;;;;;5005568;28;22292;-60
2022/11/04 12:55:23;;;;;;;;;;;12.90;99.90;;;;;;5008241;28;20526;-61
2022/11/04 12:57:52;;;;;;;;;;;12.90;99.90;;;;;;5007063;28;19929;-60
2022/11/04 13:00:23;;;;;;;;;;;12.80;99.90;;;;;;5009384;28;20556;-61
2022/11/04 13:02:51;;;;;;;;;;;12.90;99.90;;;;;;5005189;28;19940;-60
2022/11/04 13:05:28;;;;;;;;;;;12.90;99.90;;;;;;5009706;28;19939;-60
2022/11/04 13:07:56;;;;;;;;;;;12.90;99.90;;;;;;5008175;28;19929;-60
2022/11/04 13:10:26;;;;;;;;;;;13.00;99.90;;;;;;5008746;28;19933;-60
2022/11/04 13:12:55;;;;;;;;;;;13.00;99.90;;;;;;5007953;28;20386;-60
2022/11/04 13:15:22;;;;;;;;;;;12.90;99.90;;;;;;5011620;28;19934;-61
2022/11/04 13:17:52;;;;;;;;;;;12.90;99.90;;;;;;5007695;28;21241;-61
2022/11/04 13:20:26;;;;;;;;;;;12.90;99.90;;;;;;5009608;28;19929;-61
2022/11/04 13:22:58;;;;;;;;;;;12.90;99.90;;;;;;5008908;28;20470;-61
2022/11/04 13:25:28;;;;;;;;;;;12.90;99.90;;;;;;5010114;28;19933;-61
2022/11/04 13:27:55;;;;;;;;;;;12.80;99.90;;;;;;5007718;28;19929;-61
2022/11/04 13:30:27;;;;;;;;;;;12.80;99.90;;;;;;5008980;28;20520;-60
2022/11/04 13:32:55;;;;;;;;;;;12.80;99.90;;;;;;5005129;28;20504;-61
2022/11/04 13:35:28;;;;;;;;;;;12.80;99.90;;;;;;5007760;28;20908;-61
2022/11/04 13:37:58;;;;;;;;;;;12.80;99.90;;;;;;5008135;28;19930;-61
2022/11/04 13:40:26;;;;;;;;;;;12.80;99.90;;;;;;5007616;28;19964;-60
2022/11/04 13:45:45;;;;;;;;;;;12.80;99.90;;;;;;5004320;28;19968;-61
2022/11/04 13:48:12;;;;;;;;;;;12.70;99.90;;;;;;5007117;28;20656;-61
2022/11/04 13:50:40;;;;;;;;;;;12.70;99.90;;;;;;5001708;28;19929;-60
2022/11/04 13:53:10;;;;;;;;;;;12.70;99.90;;;;;;4127808;28;10000909;-60
2022/11/04 13:55:47;;;;;;;;;;;12.70;99.90;;;;;;5004232;28;20437;-61
2022/11/04 13:58:20;;;;;;;;;;;12.70;99.90;;;;;;5004107;28;19929;-61
2022/11/04 14:01:01;;;;;;;;;;;12.80;99.90;;;;;;5001482;28;20438;-61
2022/11/04 14:03:51;;;;;;;;;;;12.80;99.90;;;;;;5006426;28;20026;-61
2022/11/04 14:06:38;;;;;;;;;;;12.80;99.90;;;;;;5001258;28;19929;-61
2022/11/04 14:09:19;;;;;;;;;;;12.90;99.90;;;;;;4999343;28;20469;-60
2022/11/04 14:12:01;;;;;;;;;;;12.90;99.90;;;;;;5005691;28;19934;-61
2022/11/04 14:14:29;;;;;;;;;;;12.90;99.90;;;;;;5003941;28;20032;-61
2022/11/04 14:16:56;;;;;;;;;;;12.90;99.90;;;;;;5002639;28;19929;-61
2022/11/04 14:19:56;;;;;;;;;;;12.80;99.90;;;;;;5005658;28;19972;-60
2022/11/04 14:22:27;;;;;;;;;;;12.80;99.90;;;;;;5005620;28;19944;-60
2022/11/04 14:24:54;;;;;;;;;;;12.70;99.90;;;;;;5005470;28;19929;-60
2022/11/04 14:27:23;;;;;;;;;;;12.70;99.90;;;;;;5004781;28;19930;-61
2022/11/04 14:29:53;;;;;;;;;;;12.70;99.90;;;;;;5005651;28;20434;-61
2022/11/04 14:32:23;;;;;;;;;;;12.60;99.90;;;;;;5005920;28;19933;-61
2022/11/04 14:34:57;;;;;;;;;;;12.50;99.90;;;;;;5004471;28;20440;-61
2022/11/04 14:37:27;;;;;;;;;;;12.60;99.90;;;;;;5003465;28;20052;-60
2022/11/04 14:39:57;;;;;;;;;;;12.50;99.90;;;;;;5007880;28;19929;-61
2022/11/04 14:42:38;;;;;;;;;;;12.50;99.90;;;;;;5005994;28;19933;-61
2022/11/04 14:45:08;;;;;;;;;;;12.50;99.90;;;;;;5003723;28;21105;-61
2022/11/04 14:47:36;;;;;;;;;;;12.40;99.90;;;;;;5005524;28;19929;-60
2022/11/04 14:50:06;;;;;;;;;;;12.40;99.90;;;;;;5003518;28;19937;-61
2022/11/04 14:52:34;;;;;;;;;;;12.40;99.90;;;;;;5009744;28;20431;-60
2022/11/04 14:55:03;;;;;;;;;;;12.30;99.90;;;;;;5010605;28;19929;-60
2022/11/04 14:57:35;;;;;;;;;;;12.30;99.90;;;;;;5009813;28;19976;-60
2022/11/04 15:00:18;;;;;;;;;;;12.30;99.90;;;;;;5010220;28;20203;-61
2022/11/04 15:02:46;;;;;;;;;;;12.20;99.90;;;;;;5011683;28;20031;-61
2022/11/04 15:05:21;;;;;;;;;;;12.20;99.90;;;;;;5011053;28;20390;-60